sensor_id;sensor_type;location;lat;lon;timestamp;temperature;humidity
49731;DHT22;35622;52.008;5.426;2022-09-25T00:01:11;13.40;68.00
49731;DHT22;35622;52.008;5.426;2022-09-25T00:03:38;13.20;68.20
49731;DHT22;35622;52.008;5.426;2022-09-25T00:06:10;13.20;68.30
49731;DHT22;35622;52.008;5.426;2022-09-25T00:08:36;13.30;67.80
49731;DHT22;35622;52.008;5.426;2022-09-25T00:11:14;13.20;67.60
49731;DHT22;35622;52.008;5.426;2022-09-25T00:13:40;13.10;68.30
49731;DHT22;35622;52.008;5.426;2022-09-25T00:16:09;13.10;67.50
49731;DHT22;35622;52.008;5.426;2022-09-25T00:18:35;13.00;67.60
49731;DHT22;35622;52.008;5.426;2022-09-25T00:21:19;13.00;67.60
49731;DHT22;35622;52.008;5.426;2022-09-25T00:23:45;13.00;67.80
49731;DHT22;35622;52.008;5.426;2022-09-25T00:26:13;13.10;67.10
49731;DHT22;35622;52.008;5.426;2022-09-25T00:28:41;12.90;67.10
49731;DHT22;35622;52.008;5.426;2022-09-25T00:31:09;12.90;67.30
49731;DHT22;35622;52.008;5.426;2022-09-25T00:33:35;12.80;67.30
49731;DHT22;35622;52.008;5.426;2022-09-25T00:36:06;12.80;67.50
49731;DHT22;35622;52.008;5.426;2022-09-25T00:38:33;12.80;67.70
49731;DHT22;35622;52.008;5.426;2022-09-25T00:40:59;12.90;67.10
49731;DHT22;35622;52.008;5.426;2022-09-25T00:46:24;12.50;67.50
49731;DHT22;35622;52.008;5.426;2022-09-25T00:55:00;12.40;67.50
49731;DHT22;35622;52.008;5.426;2022-09-25T00:57:07;12.40;67.70
49731;DHT22;35622;52.008;5.426;2022-09-25T00:59:42;12.40;67.30
49731;DHT22;35622;52.008;5.426;2022-09-25T01:02:11;12.40;67.40
49731;DHT22;35622;52.008;5.426;2022-09-25T01:04:39;12.30;67.70
49731;DHT22;35622;52.008;5.426;2022-09-25T01:07:06;12.30;67.70
49731;DHT22;35622;52.008;5.426;2022-09-25T01:09:33;12.30;67.80
49731;DHT22;35622;52.008;5.426;2022-09-25T01:12:00;12.20;68.00
49731;DHT22;35622;52.008;5.426;2022-09-25T01:14:25;12.20;68.10
49731;DHT22;35622;52.008;5.426;2022-09-25T01:25:49;12.00;67.60
49731;DHT22;35622;52.008;5.426;2022-09-25T01:31:37;11.90;68.10
49731;DHT22;35622;52.008;5.426;2022-09-25T01:34:19;11.90;68.30
49731;DHT22;35622;52.008;5.426;2022-09-25T01:36:50;12.00;67.90
49731;DHT22;35622;52.008;5.426;2022-09-25T01:39:26;11.90;67.60
49731;DHT22;35622;52.008;5.426;2022-09-25T01:42:08;12.00;67.50
49731;DHT22;35622;52.008;5.426;2022-09-25T01:44:42;11.90;67.10
49731;DHT22;35622;52.008;5.426;2022-09-25T01:47:16;11.80;67.20
49731;DHT22;35622;52.008;5.426;2022-09-25T01:49:48;11.80;67.30
49731;DHT22;35622;52.008;5.426;2022-09-25T01:52:19;11.60;67.50
49731;DHT22;35622;52.008;5.426;2022-09-25T01:54:53;11.60;67.70
49731;DHT22;35622;52.008;5.426;2022-09-25T01:57:30;11.60;67.70
49731;DHT22;35622;52.008;5.426;2022-09-25T02:00:05;11.60;67.80
49731;DHT22;35622;52.008;5.426;2022-09-25T02:02:37;11.70;67.50
49731;DHT22;35622;52.008;5.426;2022-09-25T02:07:38;11.60;67.10
49731;DHT22;35622;52.008;5.426;2022-09-25T02:10:14;11.60;67.20
49731;DHT22;35622;52.008;5.426;2022-09-25T02:12:46;11.50;67.90
49731;DHT22;35622;52.008;5.426;2022-09-25T02:15:21;11.50;66.80
49731;DHT22;35622;52.008;5.426;2022-09-25T02:17:53;11.50;66.70
49731;DHT22;35622;52.008;5.426;2022-09-25T02:20:38;11.40;67.00
49731;DHT22;35622;52.008;5.426;2022-09-25T02:23:16;11.40;66.90
49731;DHT22;35622;52.008;5.426;2022-09-25T02:28:26;11.30;67.00
49731;DHT22;35622;52.008;5.426;2022-09-25T02:30:54;11.20;67.10
49731;DHT22;35622;52.008;5.426;2022-09-25T02:33:20;11.20;67.30
49731;DHT22;35622;52.008;5.426;2022-09-25T02:35:46;11.20;67.10
49731;DHT22;35622;52.008;5.426;2022-09-25T02:38:13;11.20;67.30
49731;DHT22;35622;52.008;5.426;2022-09-25T02:40:52;11.20;67.30
49731;DHT22;35622;52.008;5.426;2022-09-25T02:46:13;11.10;66.80
49731;DHT22;35622;52.008;5.426;2022-09-25T02:48:55;11.10;66.90
49731;DHT22;35622;52.008;5.426;2022-09-25T02:54:01;10.90;67.10
49731;DHT22;35622;52.008;5.426;2022-09-25T02:56:36;10.90;67.50
49731;DHT22;35622;52.008;5.426;2022-09-25T02:59:11;10.90;67.70
49731;DHT22;35622;52.008;5.426;2022-09-25T03:01:41;11.00;67.30
49731;DHT22;35622;52.008;5.426;2022-09-25T03:04:08;11.00;66.80
49731;DHT22;35622;52.008;5.426;2022-09-25T03:06:35;10.90;66.80
49731;DHT22;35622;52.008;5.426;2022-09-25T03:09:02;10.80;67.00
49731;DHT22;35622;52.008;5.426;2022-09-25T03:11:28;10.80;67.30
49731;DHT22;35622;52.008;5.426;2022-09-25T03:14:02;10.90;67.00
49731;DHT22;35622;52.008;5.426;2022-09-25T03:16:50;10.80;66.60
49731;DHT22;35622;52.008;5.426;2022-09-25T03:19:17;10.80;66.80
49731;DHT22;35622;52.008;5.426;2022-09-25T03:21:46;10.80;66.50
49731;DHT22;35622;52.008;5.426;2022-09-25T03:24:12;10.70;66.50
49731;DHT22;35622;52.008;5.426;2022-09-25T03:26:39;10.60;66.70
49731;DHT22;35622;52.008;5.426;2022-09-25T03:29:05;10.60;67.20
49731;DHT22;35622;52.008;5.426;2022-09-25T03:31:31;10.60;67.30
49731;DHT22;35622;52.008;5.426;2022-09-25T03:33:57;10.60;67.60
49731;DHT22;35622;52.008;5.426;2022-09-25T03:36:27;10.60;67.30
49731;DHT22;35622;52.008;5.426;2022-09-25T03:38:55;10.50;67.00
49731;DHT22;35622;52.008;5.426;2022-09-25T03:41:29;10.50;67.10
49731;DHT22;35622;52.008;5.426;2022-09-25T03:43:55;10.40;67.30
49731;DHT22;35622;52.008;5.426;2022-09-25T03:46:23;10.40;67.40
49731;DHT22;35622;52.008;5.426;2022-09-25T03:48:50;10.40;67.60
49731;DHT22;35622;52.008;5.426;2022-09-25T03:51:17;10.50;67.40
49731;DHT22;35622;52.008;5.426;2022-09-25T03:53:44;10.50;67.10
49731;DHT22;35622;52.008;5.426;2022-09-25T03:56:13;10.40;67.30
49731;DHT22;35622;52.008;5.426;2022-09-25T03:58:39;10.30;67.10
49731;DHT22;35622;52.008;5.426;2022-09-25T04:01:05;10.30;67.20
49731;DHT22;35622;52.008;5.426;2022-09-25T04:03:32;10.40;67.20
49731;DHT22;35622;52.008;5.426;2022-09-25T04:06:00;10.40;67.50
49731;DHT22;35622;52.008;5.426;2022-09-25T04:08:27;10.50;67.20
49731;DHT22;35622;52.008;5.426;2022-09-25T04:10:53;10.40;67.00
49731;DHT22;35622;52.008;5.426;2022-09-25T04:13:21;10.30;67.00
49731;DHT22;35622;52.008;5.426;2022-09-25T04:15:47;10.30;67.10
49731;DHT22;35622;52.008;5.426;2022-09-25T04:18:13;10.30;67.50
49731;DHT22;35622;52.008;5.426;2022-09-25T04:20:39;10.30;67.00
49731;DHT22;35622;52.008;5.426;2022-09-25T04:23:05;10.30;66.90
49731;DHT22;35622;52.008;5.426;2022-09-25T04:25:30;10.30;67.10
49731;DHT22;35622;52.008;5.426;2022-09-25T04:27:56;10.20;67.30
49731;DHT22;35622;52.008;5.426;2022-09-25T04:30:26;10.20;67.30
49731;DHT22;35622;52.008;5.426;2022-09-25T04:32:52;10.10;67.30
49731;DHT22;35622;52.008;5.426;2022-09-25T04:35:37;10.10;67.60
49731;DHT22;35622;52.008;5.426;2022-09-25T04:38:03;10.20;67.50
49731;DHT22;35622;52.008;5.426;2022-09-25T04:40:30;10.10;67.60
49731;DHT22;35622;52.008;5.426;2022-09-25T04:43:00;10.10;67.20
49731;DHT22;35622;52.008;5.426;2022-09-25T04:45:27;10.10;67.40
49731;DHT22;35622;52.008;5.426;2022-09-25T04:47:55;10.20;67.60
49731;DHT22;35622;52.008;5.426;2022-09-25T04:50:23;10.10;67.30
49731;DHT22;35622;52.008;5.426;2022-09-25T04:52:50;10.20;67.60
49731;DHT22;35622;52.008;5.426;2022-09-25T04:55:17;10.20;67.20
49731;DHT22;35622;52.008;5.426;2022-09-25T04:57:43;10.20;66.90
49731;DHT22;35622;52.008;5.426;2022-09-25T05:00:09;10.10;66.80
49731;DHT22;35622;52.008;5.426;2022-09-25T05:02:35;10.10;67.30
49731;DHT22;35622;52.008;5.426;2022-09-25T05:05:01;10.10;67.40
49731;DHT22;35622;52.008;5.426;2022-09-25T05:07:27;10.00;67.60
49731;DHT22;35622;52.008;5.426;2022-09-25T05:09:53;10.10;67.60
49731;DHT22;35622;52.008;5.426;2022-09-25T05:12:18;10.10;67.50
49731;DHT22;35622;52.008;5.426;2022-09-25T05:14:45;10.10;67.10
49731;DHT22;35622;52.008;5.426;2022-09-25T05:17:10;10.00;67.30
49731;DHT22;35622;52.008;5.426;2022-09-25T05:19:36;10.00;67.30
49731;DHT22;35622;52.008;5.426;2022-09-25T05:22:02;9.80;67.40
49731;DHT22;35622;52.008;5.426;2022-09-25T05:24:28;9.90;67.90
49731;DHT22;35622;52.008;5.426;2022-09-25T05:26:56;9.90;67.80
49731;DHT22;35622;52.008;5.426;2022-09-25T05:29:21;9.90;67.90
49731;DHT22;35622;52.008;5.426;2022-09-25T05:31:47;9.90;68.00
49731;DHT22;35622;52.008;5.426;2022-09-25T05:34:14;10.00;67.90
49731;DHT22;35622;52.008;5.426;2022-09-25T05:36:40;10.00;67.60
49731;DHT22;35622;52.008;5.426;2022-09-25T05:39:08;10.00;67.30
49731;DHT22;35622;52.008;5.426;2022-09-25T05:41:33;9.90;67.40
49731;DHT22;35622;52.008;5.426;2022-09-25T05:44:01;9.90;67.60
49731;DHT22;35622;52.008;5.426;2022-09-25T05:46:31;9.90;67.70
49731;DHT22;35622;52.008;5.426;2022-09-25T05:48:58;10.10;67.50
49731;DHT22;35622;52.008;5.426;2022-09-25T05:51:24;10.10;67.30
49731;DHT22;35622;52.008;5.426;2022-09-25T05:53:52;10.00;67.30
49731;DHT22;35622;52.008;5.426;2022-09-25T05:56:18;10.00;67.70
49731;DHT22;35622;52.008;5.426;2022-09-25T05:58:44;10.10;67.80
49731;DHT22;35622;52.008;5.426;2022-09-25T06:01:09;10.10;67.40
49731;DHT22;35622;52.008;5.426;2022-09-25T06:03:35;10.10;67.40
49731;DHT22;35622;52.008;5.426;2022-09-25T06:06:01;10.10;67.60
49731;DHT22;35622;52.008;5.426;2022-09-25T06:08:28;10.30;67.50
49731;DHT22;35622;52.008;5.426;2022-09-25T06:10:55;10.30;67.10
49731;DHT22;35622;52.008;5.426;2022-09-25T06:13:21;10.30;67.00
49731;DHT22;35622;52.008;5.426;2022-09-25T06:15:47;10.40;67.20
49731;DHT22;35622;52.008;5.426;2022-09-25T06:18:20;10.50;66.80
49731;DHT22;35622;52.008;5.426;2022-09-25T06:20:46;10.50;66.90
49731;DHT22;35622;52.008;5.426;2022-09-25T06:23:12;10.50;67.10
49731;DHT22;35622;52.008;5.426;2022-09-25T06:25:38;10.70;66.80
49731;DHT22;35622;52.008;5.426;2022-09-25T06:28:04;10.80;66.60
49731;DHT22;35622;52.008;5.426;2022-09-25T06:30:32;11.00;66.40
49731;DHT22;35622;52.008;5.426;2022-09-25T06:33:02;11.20;66.90
49731;DHT22;35622;52.008;5.426;2022-09-25T06:35:31;11.90;70.40
49731;DHT22;35622;52.008;5.426;2022-09-25T06:37:59;13.50;74.90
49731;DHT22;35622;52.008;5.426;2022-09-25T06:40:27;15.50;73.20
49731;DHT22;35622;52.008;5.426;2022-09-25T06:42:56;17.50;67.00
49731;DHT22;35622;52.008;5.426;2022-09-25T06:45:22;19.00;59.40
49731;DHT22;35622;52.008;5.426;2022-09-25T06:47:48;20.60;52.20
49731;DHT22;35622;52.008;5.426;2022-09-25T06:50:14;21.30;49.60
49731;DHT22;35622;52.008;5.426;2022-09-25T06:52:43;20.90;44.40
49731;DHT22;35622;52.008;5.426;2022-09-25T06:55:09;20.20;43.50
49731;DHT22;35622;52.008;5.426;2022-09-25T06:57:35;19.50;43.70
49731;DHT22;35622;52.008;5.426;2022-09-25T07:00:04;18.90;44.30
49731;DHT22;35622;52.008;5.426;2022-09-25T07:02:29;18.40;45.20
49731;DHT22;35622;52.008;5.426;2022-09-25T07:05:13;17.90;46.40
49731;DHT22;35622;52.008;5.426;2022-09-25T07:07:40;17.30;48.00
49731;DHT22;35622;52.008;5.426;2022-09-25T07:10:07;17.00;49.40
49731;DHT22;35622;52.008;5.426;2022-09-25T07:12:32;16.50;50.60
49731;DHT22;35622;52.008;5.426;2022-09-25T07:14:58;16.20;51.90
49731;DHT22;35622;52.008;5.426;2022-09-25T07:17:24;16.20;52.90
49731;DHT22;35622;52.008;5.426;2022-09-25T07:19:49;16.00;53.60
49731;DHT22;35622;52.008;5.426;2022-09-25T07:22:15;16.00;54.10
49731;DHT22;35622;52.008;5.426;2022-09-25T07:24:40;15.90;54.70
49731;DHT22;35622;52.008;5.426;2022-09-25T07:27:06;15.90;55.30
49731;DHT22;35622;52.008;5.426;2022-09-25T07:29:31;15.80;55.70
49731;DHT22;35622;52.008;5.426;2022-09-25T07:32:00;15.90;56.00
49731;DHT22;35622;52.008;5.426;2022-09-25T07:34:25;16.00;56.00
49731;DHT22;35622;52.008;5.426;2022-09-25T07:36:51;16.20;56.50
49731;DHT22;35622;52.008;5.426;2022-09-25T07:39:18;16.50;56.90
49731;DHT22;35622;52.008;5.426;2022-09-25T07:41:44;17.20;56.60
49731;DHT22;35622;52.008;5.426;2022-09-25T07:44:10;17.90;55.60
49731;DHT22;35622;52.008;5.426;2022-09-25T07:46:35;18.70;55.00
49731;DHT22;35622;52.008;5.426;2022-09-25T07:49:01;20.10;52.50
49731;DHT22;35622;52.008;5.426;2022-09-25T07:51:26;22.60;49.10
49731;DHT22;35622;52.008;5.426;2022-09-25T07:53:52;25.40;43.00
49731;DHT22;35622;52.008;5.426;2022-09-25T07:56:18;27.90;36.50
49731;DHT22;35622;52.008;5.426;2022-09-25T07:58:44;30.00;32.00
49731;DHT22;35622;52.008;5.426;2022-09-25T08:01:11;31.90;28.60
49731;DHT22;35622;52.008;5.426;2022-09-25T08:03:37;33.50;26.20
49731;DHT22;35622;52.008;5.426;2022-09-25T08:06:08;34.90;24.60
49731;DHT22;35622;52.008;5.426;2022-09-25T08:08:35;36.00;23.70
49731;DHT22;35622;52.008;5.426;2022-09-25T08:11:05;37.10;23.10
49731;DHT22;35622;52.008;5.426;2022-09-25T08:13:35;38.00;22.30
49731;DHT22;35622;52.008;5.426;2022-09-25T08:16:06;38.80;21.70
49731;DHT22;35622;52.008;5.426;2022-09-25T08:18:32;39.40;21.30
49731;DHT22;35622;52.008;5.426;2022-09-25T08:21:02;40.00;20.50
49731;DHT22;35622;52.008;5.426;2022-09-25T08:23:28;40.60;19.60
49731;DHT22;35622;52.008;5.426;2022-09-25T08:25:54;41.20;19.60
49731;DHT22;35622;52.008;5.426;2022-09-25T08:28:19;41.70;19.40
49731;DHT22;35622;52.008;5.426;2022-09-25T08:30:45;42.10;19.10
49731;DHT22;35622;52.008;5.426;2022-09-25T08:33:12;42.70;18.50
49731;DHT22;35622;52.008;5.426;2022-09-25T08:35:38;43.20;17.60
49731;DHT22;35622;52.008;5.426;2022-09-25T08:38:06;43.60;17.70
49731;DHT22;35622;52.008;5.426;2022-09-25T08:40:33;43.90;17.30
49731;DHT22;35622;52.008;5.426;2022-09-25T08:43:02;43.80;17.00
49731;DHT22;35622;52.008;5.426;2022-09-25T08:45:38;44.00;17.40
49731;DHT22;35622;52.008;5.426;2022-09-25T08:48:32;44.10;16.90
49731;DHT22;35622;52.008;5.426;2022-09-25T08:51:17;44.40;17.10
49731;DHT22;35622;52.008;5.426;2022-09-25T08:53:43;45.00;16.60
49731;DHT22;35622;52.008;5.426;2022-09-25T08:56:11;45.40;16.00
49731;DHT22;35622;52.008;5.426;2022-09-25T08:59:01;45.40;15.30
49731;DHT22;35622;52.008;5.426;2022-09-25T09:01:35;45.30;15.30
49731;DHT22;35622;52.008;5.426;2022-09-25T09:04:29;45.40;15.80
49731;DHT22;35622;52.008;5.426;2022-09-25T09:09:55;45.40;16.10
49731;DHT22;35622;52.008;5.426;2022-09-25T09:12:44;44.90;16.10
49731;DHT22;35622;52.008;5.426;2022-09-25T09:18:26;44.10;15.70
49731;DHT22;35622;52.008;5.426;2022-09-25T09:20:56;44.20;14.80
49731;DHT22;35622;52.008;5.426;2022-09-25T09:34:54;45.20;14.70
49731;DHT22;35622;52.008;5.426;2022-09-25T09:40:31;42.80;15.10
49731;DHT22;35622;52.008;5.426;2022-09-25T09:43:24;41.90;14.40
49731;DHT22;35622;52.008;5.426;2022-09-25T09:46:09;40.30;17.60
49731;DHT22;35622;52.008;5.426;2022-09-25T09:48:58;39.20;19.60
49731;DHT22;35622;52.008;5.426;2022-09-25T09:51:34;37.90;19.20
49731;DHT22;35622;52.008;5.426;2022-09-25T09:54:16;36.00;20.10
49731;DHT22;35622;52.008;5.426;2022-09-25T09:56:47;34.10;23.50
49731;DHT22;35622;52.008;5.426;2022-09-25T09:59:45;32.50;25.10
49731;DHT22;35622;52.008;5.426;2022-09-25T10:02:38;31.10;27.20
49731;DHT22;35622;52.008;5.426;2022-09-25T10:07:45;27.80;31.00
49731;DHT22;35622;52.008;5.426;2022-09-25T10:10:14;26.60;33.50
49731;DHT22;35622;52.008;5.426;2022-09-25T10:12:46;25.50;36.00
49731;DHT22;35622;52.008;5.426;2022-09-25T10:17:42;27.20;36.60
49731;DHT22;35622;52.008;5.426;2022-09-25T10:20:20;29.60;32.20
49731;DHT22;35622;52.008;5.426;2022-09-25T10:22:46;31.40;29.30
49731;DHT22;35622;52.008;5.426;2022-09-25T10:25:36;33.60;26.20
49731;DHT22;35622;52.008;5.426;2022-09-25T10:28:31;35.30;24.00
49731;DHT22;35622;52.008;5.426;2022-09-25T10:30:58;36.90;21.50
49731;DHT22;35622;52.008;5.426;2022-09-25T10:33:30;37.70;18.90
49731;DHT22;35622;52.008;5.426;2022-09-25T10:35:56;37.80;20.20
49731;DHT22;35622;52.008;5.426;2022-09-25T10:41:10;36.00;20.70
49731;DHT22;35622;52.008;5.426;2022-09-25T10:44:00;33.90;22.70
49731;DHT22;35622;52.008;5.426;2022-09-25T10:46:44;31.70;25.40
49731;DHT22;35622;52.008;5.426;2022-09-25T10:49:28;29.80;28.20
49731;DHT22;35622;52.008;5.426;2022-09-25T10:52:14;28.30;31.80
49731;DHT22;35622;52.008;5.426;2022-09-25T10:54:41;27.50;31.80
49731;DHT22;35622;52.008;5.426;2022-09-25T10:59:58;28.60;34.30
49731;DHT22;35622;52.008;5.426;2022-09-25T11:02:35;29.50;29.60
49731;DHT22;35622;52.008;5.426;2022-09-25T11:05:02;29.30;29.80
49731;DHT22;35622;52.008;5.426;2022-09-25T11:07:29;28.80;31.10
49731;DHT22;35622;52.008;5.426;2022-09-25T11:09:55;28.00;34.70
49731;DHT22;35622;52.008;5.426;2022-09-25T11:12:22;27.40;34.60
49731;DHT22;35622;52.008;5.426;2022-09-25T11:14:58;26.90;35.30
49731;DHT22;35622;52.008;5.426;2022-09-25T11:17:42;26.10;36.00
49731;DHT22;35622;52.008;5.426;2022-09-25T11:22:47;24.90;39.20
49731;DHT22;35622;52.008;5.426;2022-09-25T11:25:15;26.00;41.00
49731;DHT22;35622;52.008;5.426;2022-09-25T11:27:52;28.20;37.20
49731;DHT22;35622;52.008;5.426;2022-09-25T11:30:20;30.40;30.10
49731;DHT22;35622;52.008;5.426;2022-09-25T11:33:10;32.20;26.50
49731;DHT22;35622;52.008;5.426;2022-09-25T11:44:39;32.90;23.60
49731;DHT22;35622;52.008;5.426;2022-09-25T11:47:11;31.30;25.60
49731;DHT22;35622;52.008;5.426;2022-09-25T11:49:40;30.40;27.00
49731;DHT22;35622;52.008;5.426;2022-09-25T11:52:28;30.20;29.10
49731;DHT22;35622;52.008;5.426;2022-09-25T12:00:35;34.90;23.10
49731;DHT22;35622;52.008;5.426;2022-09-25T12:03:31;36.50;19.90
49731;DHT22;35622;52.008;5.426;2022-09-25T12:06:18;37.10;20.60
49731;DHT22;35622;52.008;5.426;2022-09-25T12:09:08;36.40;18.90
49731;DHT22;35622;52.008;5.426;2022-09-25T12:17:55;31.00;24.50
49731;DHT22;35622;52.008;5.426;2022-09-25T12:32:00;26.00;29.50
49731;DHT22;35622;52.008;5.426;2022-09-25T12:35:17;25.40;29.40
49731;DHT22;35622;52.008;5.426;2022-09-25T12:37:34;24.50;30.20
49731;DHT22;35622;52.008;5.426;2022-09-25T12:40:24;23.70;34.50
49731;DHT22;35622;52.008;5.426;2022-09-25T12:45:41;23.60;36.50
49731;DHT22;35622;52.008;5.426;2022-09-25T12:48:23;23.70;36.10
49731;DHT22;35622;52.008;5.426;2022-09-25T12:50:58;23.70;37.60
49731;DHT22;35622;52.008;5.426;2022-09-25T12:53:39;23.50;38.70
49731;DHT22;35622;52.008;5.426;2022-09-25T12:56:12;23.50;40.00
49731;DHT22;35622;52.008;5.426;2022-09-25T12:59:08;23.40;41.00
49731;DHT22;35622;52.008;5.426;2022-09-25T13:10:23;23.00;38.90
49731;DHT22;35622;52.008;5.426;2022-09-25T13:12:54;23.10;37.90
49731;DHT22;35622;52.008;5.426;2022-09-25T13:15:27;23.40;37.00
49731;DHT22;35622;52.008;5.426;2022-09-25T13:17:54;23.70;35.10
49731;DHT22;35622;52.008;5.426;2022-09-25T13:25:24;23.70;37.10
49731;DHT22;35622;52.008;5.426;2022-09-25T13:27:50;23.60;38.60
49731;DHT22;35622;52.008;5.426;2022-09-25T13:30:27;23.60;39.10
49731;DHT22;35622;52.008;5.426;2022-09-25T13:32:55;23.70;38.60
49731;DHT22;35622;52.008;5.426;2022-09-25T13:35:23;23.70;38.20
49731;DHT22;35622;52.008;5.426;2022-09-25T13:37:52;23.60;36.90
49731;DHT22;35622;52.008;5.426;2022-09-25T13:40:21;23.40;37.20
49731;DHT22;35622;52.008;5.426;2022-09-25T13:43:26;23.10;38.20
49731;DHT22;35622;52.008;5.426;2022-09-25T13:48:48;22.70;39.40
49731;DHT22;35622;52.008;5.426;2022-09-25T14:01:43;22.30;41.90
49731;DHT22;35622;52.008;5.426;2022-09-25T14:06:37;22.10;42.30
49731;DHT22;35622;52.008;5.426;2022-09-25T14:09:09;21.90;43.60
49731;DHT22;35622;52.008;5.426;2022-09-25T14:11:36;21.90;44.40
49731;DHT22;35622;52.008;5.426;2022-09-25T14:14:14;21.90;44.50
49731;DHT22;35622;52.008;5.426;2022-09-25T14:16:48;21.80;44.80
49731;DHT22;35622;52.008;5.426;2022-09-25T14:19:19;21.90;45.20
49731;DHT22;35622;52.008;5.426;2022-09-25T14:21:47;21.80;45.70
49731;DHT22;35622;52.008;5.426;2022-09-25T14:24:24;21.80;46.00
49731;DHT22;35622;52.008;5.426;2022-09-25T14:26:54;21.80;45.70
49731;DHT22;35622;52.008;5.426;2022-09-25T14:29:38;21.80;46.20
49731;DHT22;35622;52.008;5.426;2022-09-25T14:32:34;21.80;46.30
49731;DHT22;35622;52.008;5.426;2022-09-25T14:37:50;21.60;47.30
49731;DHT22;35622;52.008;5.426;2022-09-25T14:45:57;21.20;49.70
49731;DHT22;35622;52.008;5.426;2022-09-25T14:48:54;21.10;47.80
49731;DHT22;35622;52.008;5.426;2022-09-25T14:51:24;20.90;49.40
49731;DHT22;35622;52.008;5.426;2022-09-25T14:53:54;20.90;50.70
49731;DHT22;35622;52.008;5.426;2022-09-25T14:56:21;21.00;51.50
49731;DHT22;35622;52.008;5.426;2022-09-25T14:58:52;20.90;51.80
49731;DHT22;35622;52.008;5.426;2022-09-25T15:01:29;20.90;51.80
49731;DHT22;35622;52.008;5.426;2022-09-25T15:04:00;20.80;52.10
49731;DHT22;35622;52.008;5.426;2022-09-25T15:06:32;20.90;51.50
49731;DHT22;35622;52.008;5.426;2022-09-25T15:08:59;20.80;52.10
49731;DHT22;35622;52.008;5.426;2022-09-25T15:11:41;20.90;52.40
49731;DHT22;35622;52.008;5.426;2022-09-25T15:14:15;20.90;52.70
49731;DHT22;35622;52.008;5.426;2022-09-25T15:16:41;20.90;52.40
49731;DHT22;35622;52.008;5.426;2022-09-25T15:19:41;21.00;52.10
49731;DHT22;35622;52.008;5.426;2022-09-25T15:22:15;20.90;52.50
49731;DHT22;35622;52.008;5.426;2022-09-25T15:24:47;20.90;51.60
49731;DHT22;35622;52.008;5.426;2022-09-25T15:27:13;21.10;51.60
49731;DHT22;35622;52.008;5.426;2022-09-25T15:29:43;21.10;52.30
49731;DHT22;35622;52.008;5.426;2022-09-25T15:32:16;21.20;51.80
49731;DHT22;35622;52.008;5.426;2022-09-25T15:34:42;21.40;52.00
49731;DHT22;35622;52.008;5.426;2022-09-25T15:37:19;21.50;51.80
49731;DHT22;35622;52.008;5.426;2022-09-25T15:39:50;21.60;52.10
49731;DHT22;35622;52.008;5.426;2022-09-25T15:42:15;21.70;51.40
49731;DHT22;35622;52.008;5.426;2022-09-25T15:44:41;21.70;50.70
49731;DHT22;35622;52.008;5.426;2022-09-25T15:49:53;21.20;51.00
49731;DHT22;35622;52.008;5.426;2022-09-25T15:52:24;21.10;50.40
49731;DHT22;35622;52.008;5.426;2022-09-25T15:54:52;20.80;50.80
49731;DHT22;35622;52.008;5.426;2022-09-25T15:57:27;20.60;51.50
49731;DHT22;35622;52.008;5.426;2022-09-25T15:59:53;20.50;51.40
49731;DHT22;35622;52.008;5.426;2022-09-25T16:02:48;20.30;52.80
49731;DHT22;35622;52.008;5.426;2022-09-25T16:05:35;20.30;51.00
49731;DHT22;35622;52.008;5.426;2022-09-25T16:13:30;19.50;52.10
49731;DHT22;35622;52.008;5.426;2022-09-25T16:15:57;19.40;52.30
49731;DHT22;35622;52.008;5.426;2022-09-25T16:24:01;19.00;53.30
49731;DHT22;35622;52.008;5.426;2022-09-25T16:26:41;18.80;53.70
49731;DHT22;35622;52.008;5.426;2022-09-25T16:31:41;18.60;55.00
49731;DHT22;35622;52.008;5.426;2022-09-25T16:34:19;18.50;55.60
49731;DHT22;35622;52.008;5.426;2022-09-25T16:36:50;18.30;56.00
49731;DHT22;35622;52.008;5.426;2022-09-25T16:39:26;18.20;56.40
49731;DHT22;35622;52.008;5.426;2022-09-25T16:41:52;18.10;56.80
49731;DHT22;35622;52.008;5.426;2022-09-25T16:44:20;18.00;57.10
49731;DHT22;35622;52.008;5.426;2022-09-25T16:47:11;17.90;57.50
49731;DHT22;35622;52.008;5.426;2022-09-25T16:49:38;17.90;57.90
49731;DHT22;35622;52.008;5.426;2022-09-25T16:52:05;17.90;58.20
49731;DHT22;35622;52.008;5.426;2022-09-25T16:54:32;18.00;58.40
49731;DHT22;35622;52.008;5.426;2022-09-25T16:57:01;18.00;58.50
49731;DHT22;35622;52.008;5.426;2022-09-25T16:59:27;18.00;58.80
49731;DHT22;35622;52.008;5.426;2022-09-25T17:01:56;18.00;58.90
49731;DHT22;35622;52.008;5.426;2022-09-25T17:04:27;18.10;59.20
49731;DHT22;35622;52.008;5.426;2022-09-25T17:06:54;18.10;59.30
49731;DHT22;35622;52.008;5.426;2022-09-25T17:09:21;18.10;59.50
49731;DHT22;35622;52.008;5.426;2022-09-25T17:11:47;18.00;59.90
49731;DHT22;35622;52.008;5.426;2022-09-25T17:14:24;18.00;60.20
49731;DHT22;35622;52.008;5.426;2022-09-25T17:16:52;17.90;60.10
49731;DHT22;35622;52.008;5.426;2022-09-25T17:19:18;18.00;60.10
49731;DHT22;35622;52.008;5.426;2022-09-25T17:21:45;18.00;59.70
49731;DHT22;35622;52.008;5.426;2022-09-25T17:24:16;18.00;59.70
49731;DHT22;35622;52.008;5.426;2022-09-25T17:26:42;18.00;59.80
49731;DHT22;35622;52.008;5.426;2022-09-25T17:29:09;17.80;59.90
49731;DHT22;35622;52.008;5.426;2022-09-25T17:31:34;17.80;59.50
49731;DHT22;35622;52.008;5.426;2022-09-25T17:34:01;17.80;58.90
49731;DHT22;35622;52.008;5.426;2022-09-25T17:36:27;17.60;58.90
49731;DHT22;35622;52.008;5.426;2022-09-25T17:38:52;17.30;59.10
49731;DHT22;35622;52.008;5.426;2022-09-25T17:41:20;17.10;59.60
49731;DHT22;35622;52.008;5.426;2022-09-25T17:43:48;16.90;59.90
49731;DHT22;35622;52.008;5.426;2022-09-25T17:46:14;16.70;60.20
49731;DHT22;35622;52.008;5.426;2022-09-25T17:48:43;16.60;60.30
49731;DHT22;35622;52.008;5.426;2022-09-25T17:51:17;16.50;60.30
49731;DHT22;35622;52.008;5.426;2022-09-25T17:53:44;16.40;60.20
49731;DHT22;35622;52.008;5.426;2022-09-25T17:56:10;16.30;60.20
49731;DHT22;35622;52.008;5.426;2022-09-25T17:58:36;16.20;60.20
49731;DHT22;35622;52.008;5.426;2022-09-25T18:01:03;16.10;60.30
49731;DHT22;35622;52.008;5.426;2022-09-25T18:03:35;16.10;60.30
49731;DHT22;35622;52.008;5.426;2022-09-25T18:06:01;16.10;60.10
49731;DHT22;35622;52.008;5.426;2022-09-25T18:08:26;16.10;60.00
49731;DHT22;35622;52.008;5.426;2022-09-25T18:10:53;15.90;60.20
49731;DHT22;35622;52.008;5.426;2022-09-25T18:13:19;15.80;60.70
49731;DHT22;35622;52.008;5.426;2022-09-25T18:15:49;15.70;61.30
49731;DHT22;35622;52.008;5.426;2022-09-25T18:18:15;15.70;61.60
49731;DHT22;35622;52.008;5.426;2022-09-25T18:20:40;15.70;61.90
49731;DHT22;35622;52.008;5.426;2022-09-25T18:23:24;15.70;61.90
49731;DHT22;35622;52.008;5.426;2022-09-25T18:25:50;15.80;62.10
49731;DHT22;35622;52.008;5.426;2022-09-25T18:28:17;15.90;62.10